Latest Weather Observations for Glen Innes Airport

IDN60801

Issued at 11:33 am EST Wednesday 27 July 2016 (issued every 30 minutes, with the page automatically refreshed every 10 minutes)

About weather observations | Map of weather stations | Latest weather observations for NSW | Other Formats
Station Details ID: 056243 Name: GLEN INNES AIRPORT AWS Lat: -29.68 Lon: 151.69 Height: 1044.3 m
Data from the previous 72 hours. | See also: Recent months at Glen Innes Airport
Date/Time
EST
Temp
°C
App
Temp
°C
Dew
Point
°C
Rel
Hum
%
Delta-T
°C
Wind Press
QNH
hPa
Press
MSL
hPa
Rain since
9am
mm
Dir  Spd
km/h
Gust
km/h
Spd
kts
Gust
kts
27/11:30am 10.2 1.9 2.3 58 3.6 W 35 48 19 26 1019.4 1020.0 0.0
27/11:00am 9.4 2.0 2.0 60 3.3 W 30 41 16 22 1019.5 1020.1 0.0
27/10:30am 8.8 1.5 2.2 63 2.9 W 30 44 16 24 1020.2 1020.8 0.0
27/10:00am 8.2 0.9 2.2 66 2.7 W 30 41 16 22 1020.3 1020.9 0.0
27/09:30am 8.2 2.1 2.9 69 2.4 WSW 24 39 13 21 1020.3 1020.9 0.0
27/09:10am 7.3 0.3 2.2 70 2.2 WSW 28 46 15 25 1020.0 1020.7 0.0
27/09:00am 7.8 2.7 3.3 73 2.0 WSW 19 28 10 15 1019.8 1020.4 0.0
27/08:30am 5.9 -0.3 2.2 77 1.6 W 24 35 13 19 1020.0 1020.7 0.0
27/08:00am 4.4 0.0 2.6 88 0.8 W 15 17 8 9 1019.6 1020.2 0.0
27/07:30am 0.8 -1.2 -0.2 93 0.4 CALM 0 0 0 0 1019.4 1020.0 0.0
27/07:00am 0.5 -2.9 -0.8 91 0.5 W 7 9 4 5 1019.5 1020.1 0.0
27/06:30am 1.6 -2.9 -0.3 87 0.7 W 13 17 7 9 1019.6 1020.2 0.0
27/06:00am 2.6 -2.5 1.0 89 0.7 WSW 17 20 9 11 1019.1 1019.6 0.0
27/05:30am 2.5 -1.8 0.7 88 0.7 W 13 15 7 8 1018.6 1019.2 0.0
27/05:00am 3.1 -1.2 1.0 86 0.9 W 13 17 7 9 1018.4 1018.9 0.0
27/04:30am 3.6 -1.8 1.3 85 1.0 W 19 22 10 12 1018.3 1018.8 0.0
27/04:00am 3.8 -1.2 1.5 85 1.0 W 17 20 9 11 1018.1 1018.6 0.0
27/03:30am 3.6 0.1 1.2 84 1.0 W 9 15 5 8 1018.2 1018.7 0.0
27/03:00am 3.2 0.1 1.6 89 0.7 WSW 7 15 4 8 1017.8 1018.4 0.0
27/02:30am 1.8 -0.1 0.8 93 0.4 CALM 0 0 0 0 1018.7 1019.3 0.0
27/02:00am 1.2 -0.8 -0.1 91 0.5 CALM 0 0 0 0 1018.8 1019.4 0.0
27/01:30am 2.0 0.1 0.7 91 0.5 CALM 0 0 0 0 1018.7 1019.3 0.0
27/01:00am 1.9 0.0 0.7 92 0.5 CALM 0 0 0 0 1018.8 1019.4 0.0
27/12:30am 0.7 -1.4 -0.9 89 0.6 CALM 0 0 0 0 1018.8 1019.4 0.0
27/12:00am 1.3 -0.7 0.0 91 0.5 CALM 0 0 0 0 1019.1 1019.6 0.0
 
Date/Time
EST
Temp
°C
App
Temp
°C
Dew
Point
°C
Rel
Hum
%
Delta-T
°C
Wind Press
QNH
hPa
Press
MSL
hPa
Rain since
9am
mm
Dir  Spd
km/h
Gust
km/h
Spd
kts
Gust
kts
26/11:30pm 1.5 -0.5 0.2 91 0.5 CALM 0 0 0 0 1019.4 1020.0 0.0
26/11:00pm 1.8 -0.1 0.3 90 0.6 CALM 0 0 0 0 1019.2 1019.7 0.0
26/10:30pm 2.7 0.9 0.9 88 0.7 CALM 0 0 0 0 1019.6 1020.2 0.0
26/10:00pm 2.8 1.0 0.9 87 0.8 CALM 0 0 0 0 1019.6 1020.2 0.0
26/09:30pm 2.8 0.9 0.5 85 0.9 CALM 0 0 0 0 1019.1 1019.6 0.0
26/09:00pm 3.2 1.3 0.8 84 1.0 CALM 0 0 0 0 1019.5 1020.1 0.0
26/08:30pm 3.5 1.7 0.9 83 1.1 CALM 0 0 0 0 1019.5 1020.1 0.0
26/08:00pm 3.0 1.1 0.7 85 0.9 CALM 0 0 0 0 1019.2 1019.7 0.0
26/07:30pm 3.3 1.4 0.5 82 1.1 CALM 0 0 0 0 1018.9 1019.5 0.0
26/07:00pm 3.8 1.9 0.5 79 1.3 CALM 0 0 0 0 1018.9 1019.5 0.0
26/06:30pm 4.2 2.1 -0.6 71 1.9 CALM 0 0 0 0 1018.4 1018.9 0.0
26/06:00pm 5.1 3.1 -0.1 69 2.1 CALM 0 0 0 0 1018.2 1018.7 0.0
26/05:30pm 6.5 4.5 0.2 64 2.6 CALM 0 0 0 0 1018.2 1018.7 0.0
26/05:00pm 7.2 3.6 0.4 62 2.9 W 9 11 5 6 1017.8 1018.4 0.0
26/04:30pm 9.3 4.8 0.0 52 4.0 WNW 13 17 7 9 1017.9 1018.5 0.0
26/04:00pm 10.5 6.0 -0.6 46 4.7 WNW 13 17 7 9 1017.7 1018.3 0.0
26/03:30pm 11.1 6.1 1.4 51 4.3 WNW 17 20 9 11 1017.7 1018.3 0.0
26/03:00pm 11.4 6.7 1.1 49 4.6 WNW 15 19 8 10 1017.6 1018.2 0.0
26/02:30pm 11.8 7.1 0.6 46 5.0 WNW 15 20 8 11 1017.8 1018.4 0.0
26/02:00pm 12.1 6.9 -0.1 43 5.3 W 17 20 9 11 1017.9 1018.5 0.0
26/01:30pm 13.3 8.2 0.7 42 5.7 W 17 22 9 12 1017.9 1018.5 0.0
26/01:00pm 12.7 6.7 -1.2 38 5.9 W 20 26 11 14 1018.4 1018.9 0.0
26/12:30pm 12.6 6.6 -3.2 33 6.5 WNW 19 24 10 13 1018.6 1019.2 0.0
26/12:00pm 12.9 6.8 -2.6 34 6.4 WNW 20 28 11 15 1018.8 1019.4 0.0
26/11:30am 12.4 5.8 -3.0 34 6.3 W 22 28 12 15 1019.3 1019.9 0.0
26/11:00am 12.3 6.2 -3.5 33 6.4 WNW 19 24 10 13 1019.3 1019.9 0.0
26/10:30am 11.2 5.4 -1.2 42 5.2 W 19 22 10 12 1019.3 1019.9 0.0
26/10:00am 10.6 5.1 -2.4 40 5.3 W 17 20 9 11 1019.5 1020.1 0.0
26/09:30am 9.1 4.4 -1.6 47 4.4 WSW 13 19 7 10 1019.7 1020.3 0.0
26/09:00am 7.9 3.0 -0.3 56 3.4 WSW 15 19 8 10 1019.7 1020.3 0.2
26/08:30am 6.2 1.8 -2.7 53 3.4 WSW 11 17 6 9 1019.8 1020.4 0.2
26/08:00am 4.5 -0.4 -0.7 69 2.1 WSW 15 19 8 10 1019.8 1020.4 0.2
26/07:30am 2.5 -1.4 -1.3 76 1.5 SW 9 13 5 7 1019.8 1020.4 0.2
26/07:00am 2.0 -2.3 -1.6 77 1.4 WSW 11 20 6 11 1019.7 1020.3 0.0
26/06:30am 1.4 -2.5 -1.8 79 1.2 W 9 15 5 8 1019.5 1020.1 0.0
26/06:00am 1.5 -3.2 -1.6 80 1.2 WSW 13 17 7 9 1019.1 1019.6 0.0
26/05:30am 1.8 -2.4 -1.1 81 1.1 W 11 19 6 10 1018.8 1019.4 0.0
26/05:00am 1.6 -0.7 -2.2 76 1.4 CALM 0 0 0 0 1018.5 1019.1 0.0
26/04:30am 2.5 -0.4 -1.3 76 1.5 WSW 4 13 2 7 1018.4 1018.9 0.0
26/04:00am 1.8 -0.7 -1.3 80 1.2 W 2 11 1 6 1018.6 1019.2 0.0
26/03:30am 0.5 -1.8 -2.0 83 1.0 CALM 0 7 0 4 1018.5 1019.1 0.0
26/03:00am 0.8 -1.8 -1.6 84 0.9 WNW 2 9 1 5 1018.9 1019.5 0.0
26/02:30am 1.0 -1.6 -1.6 83 1.0 NW 2 9 1 5 1018.9 1019.5 0.0
26/02:00am 0.3 -1.9 -1.9 85 0.8 CALM 0 7 0 4 1019.1 1019.6 0.0
26/01:30am 0.3 -1.9 -1.6 87 0.7 CALM 0 7 0 4 1019.3 1019.9 0.0
26/01:00am 0.3 -2.7 -1.9 85 0.8 NW 4 11 2 6 1019.3 1019.9 0.0
26/12:30am 0.5 -3.5 -1.9 84 0.9 NW 9 13 5 7 1019.3 1019.9 0.0
26/12:00am 1.3 -2.0 -0.9 85 0.8 NNW 6 9 3 5 1019.3 1019.9 0.0
 
Date/Time
EST
Temp
°C
App
Temp
°C
Dew
Point
°C
Rel
Hum
%
Delta-T
°C
Wind Press
QNH
hPa
Press
MSL
hPa
Rain since
9am
mm
Dir  Spd
km/h
Gust
km/h
Spd
kts
Gust
kts
25/11:30pm 1.2 -1.0 -1.5 82 1.0 CALM 0 0 0 0 1019.5 1020.1 0.0
25/11:00pm 1.8 -0.3 -0.9 82 1.0 CALM 0 0 0 0 1019.4 1020.0 0.0
25/10:30pm 1.7 -0.4 -1.0 82 1.0 CALM 0 0 0 0 1019.3 1019.9 0.0
25/10:00pm 2.1 -0.3 -0.6 82 1.0 WNW 2 7 1 4 1019.3 1019.9 0.0
25/09:30pm 2.2 0.1 -0.5 82 1.1 CALM 0 0 0 0 1019.2 1019.7 0.0
25/09:00pm 2.4 0.4 0.0 84 1.0 CALM 0 0 0 0 1019.2 1019.7 0.0
25/08:30pm 2.5 0.1 -0.3 82 1.1 WNW 2 7 1 4 1019.3 1019.9 0.0
25/08:00pm 3.1 0.7 -0.2 79 1.3 WNW 2 9 1 5 1019.3 1019.9 0.0
25/07:30pm 3.9 0.0 0.9 81 1.2 WNW 11 17 6 9 1019.1 1019.6 0.0
25/07:00pm 4.2 -0.5 1.1 80 1.3 WNW 15 20 8 11 1018.6 1019.2 0.0
25/06:30pm 4.6 0.6 0.6 75 1.7 NW 11 15 6 8 1018.4 1018.9 0.0
25/06:00pm 5.4 0.7 0.8 72 1.9 WNW 15 20 8 11 1017.9 1018.5 0.0
25/05:30pm 5.7 0.1 -0.1 66 2.4 W 19 26 10 14 1017.7 1018.3 0.0
25/05:00pm 7.5 1.3 -0.5 57 3.3 W 22 32 12 17 1017.6 1018.2 0.0
25/04:30pm 8.7 1.2 -1.1 50 4.0 W 28 33 15 18 1017.3 1017.8 0.0
25/04:00pm 9.8 3.3 0.4 52 4.1 W 24 33 13 18 1017.4 1017.9 0.0
25/03:30pm 10.2 3.0 0.5 51 4.2 W 28 39 15 21 1017.4 1017.9 0.0
25/03:00pm 10.2 1.9 0.0 49 4.4 W 33 39 18 21 1017.4 1017.9 0.0
25/02:30pm 10.8 4.2 -0.6 45 4.9 W 24 33 13 18 1017.3 1017.8 0.0
25/02:00pm 10.4 2.1 -0.1 48 4.5 WNW 33 44 18 24 1017.4 1017.9 0.0
25/01:30pm 10.4 1.8 0.4 50 4.3 W 35 48 19 26 1017.2 1017.7 0.0
25/01:00pm 10.6 2.2 1.4 53 4.1 WNW 35 44 19 24 1017.3 1017.8 0.0
25/12:30pm 9.9 1.5 1.8 57 3.6 W 35 48 19 26 1017.6 1018.2 0.0
25/12:00pm 9.8 1.7 1.2 55 3.8 W 33 46 18 25 1017.9 1018.5 0.0
25/11:30am 9.7 1.7 1.8 58 3.5 WSW 33 46 18 25 1018.3 1018.8 0.0
25/11:00am 9.1 0.7 1.5 59 3.3 W 35 46 19 25 1018.6 1019.2 0.0
25/10:30am 8.5 1.2 2.3 65 2.8 W 30 43 16 23 1018.8 1019.4 0.0
25/10:00am 7.9 0.3 2.8 70 2.3 W 32 43 17 23 1018.9 1019.5 0.0
25/09:30am 7.3 -0.9 2.8 73 2.0 W 35 46 19 25 1019.1 1019.6 0.0
25/09:00am 6.8 -0.4 3.1 77 1.7 W 30 44 16 24 1018.6 1019.2 0.0
25/08:30am 5.6 -0.4 3.1 84 1.1 WNW 24 30 13 16 1018.4 1018.9 0.0
25/08:00am 4.5 -0.9 2.7 88 0.8 WNW 20 26 11 14 1018.2 1018.7 0.0
25/07:30am 2.7 -1.9 1.8 94 0.4 W 15 20 8 11 1017.9 1018.5 0.0
25/07:00am 1.4 -3.7 0.7 95 0.3 W 17 20 9 11 1017.8 1018.4 0.0
25/06:30am -0.1 -3.0 -0.9 94 0.3 W 4 11 2 6 1017.6 1018.2 0.0
25/06:00am 0.4 -1.7 -0.5 94 0.3 CALM 0 0 0 0 1017.4 1017.9 0.0
25/05:30am 0.4 -1.6 -0.3 95 0.3 CALM 0 0 0 0 1017.1 1017.6 0.0
25/05:00am -0.3 -2.4 -0.9 96 0.2 CALM 0 0 0 0 1016.7 1017.2 0.0
25/04:30am -0.8 -3.0 -1.9 92 0.4 CALM 0 0 0 0 1016.7 1017.2 0.0
25/04:00am 0.1 -2.1 -1.5 89 0.6 CALM 0 0 0 0 1016.6 1017.1 0.0
25/03:30am 0.8 -1.3 -0.6 90 0.5 CALM 0 0 0 0 1016.7 1017.2 0.0
25/03:00am 0.2 -3.6 -0.9 92 0.4 WNW 9 11 5 6 1016.8 1017.4 0.0
25/02:30am -0.6 -4.9 -2.0 90 0.5 W 11 13 6 7 1017.0 1017.5 0.0
25/02:00am 0.4 -3.5 -1.7 86 0.8 W 9 15 5 8 1017.0 1017.5 0.0
25/01:30am 0.7 -3.6 -1.7 84 0.9 W 11 15 6 8 1017.2 1017.7 0.0
25/01:00am 0.8 -3.1 -1.4 85 0.9 WSW 9 15 5 8 1017.2 1017.7 0.0
25/12:30am 0.8 -1.3 -0.5 91 0.5 CALM 0 0 0 0 1017.1 1017.6 0.0
25/12:00am -0.4 -2.6 -1.7 91 0.5 CALM 0 0 0 0 1017.2 1017.7 0.0
 
Date/Time
EST
Temp
°C
App
Temp
°C
Dew
Point
°C
Rel
Hum
%
Delta-T
°C
Wind Press
QNH
hPa
Press
MSL
hPa
Rain since
9am
mm
Dir  Spd
km/h
Gust
km/h
Spd
kts
Gust
kts
24/11:30pm 0.2 -1.9 -1.1 91 0.5 CALM 0 0 0 0 1017.4 1017.9 0.0
24/11:00pm 0.2 -2.0 -1.5 88 0.6 CALM 0 0 0 0 1017.4 1017.9 0.0
24/10:30pm 0.9 -2.4 -1.0 87 0.7 WNW 6 9 3 5 1017.5 1018.0 0.0
24/10:00pm 0.6 -2.9 -1.2 88 0.7 W 7 11 4 6 1017.3 1017.8 0.0
24/09:30pm 0.3 -4.0 -1.6 87 0.7 WNW 11 13 6 7 1017.0 1017.5 0.0
24/09:00pm 1.0 -2.4 -0.5 90 0.6 W 7 9 4 5 1016.8 1017.4 0.0
24/08:30pm 1.7 -2.0 0.1 89 0.6 W 9 11 5 6 1016.5 1017.0 0.0
24/08:00pm 1.9 -1.4 -0.2 86 0.8 W 7 11 4 6 1016.1 1016.6 0.0
24/07:30pm 2.8 -0.5 -0.1 81 1.2 NW 7 9 4 5 1015.8 1016.3 0.0
24/07:00pm 3.9 0.8 0.2 77 1.5 NW 6 11 3 6 1015.7 1016.2 0.0
24/06:30pm 4.7 2.3 -0.1 71 1.9 NNW 2 9 1 5 1015.5 1016.0 0.0
24/06:00pm 5.1 1.3 -0.5 67 2.3 NW 9 13 5 7 1015.4 1015.9 0.0
24/05:30pm 5.4 0.9 -0.4 66 2.4 NW 13 17 7 9 1015.5 1016.0 0.0
24/05:00pm 5.7 1.3 0.1 67 2.3 WNW 13 19 7 10 1015.4 1015.9 0.0
24/04:30pm 6.1 1.3 0.0 65 2.5 WNW 15 20 8 11 1015.1 1015.5 0.0
24/04:00pm 6.5 1.6 -0.2 62 2.8 WNW 15 20 8 11 1014.7 1015.2 0.0
24/03:30pm 6.8 1.4 -1.1 57 3.2 NW 17 22 9 12 1014.8 1015.3 0.0
24/03:00pm 7.3 2.1 -3.0 48 4.0 WNW 15 20 8 11 1014.6 1015.1 0.0
24/02:30pm 7.9 2.4 -2.4 48 4.1 NW 17 24 9 13 1014.3 1014.8 0.0
24/02:00pm 8.2 3.3 -0.8 53 3.7 NNW 15 20 8 11 1014.5 1015.0 0.0
24/01:30pm 7.9 3.4 -3.3 45 4.4 N 11 15 6 8 1014.4 1014.9 0.0
24/01:00pm 7.4 4.7 -2.3 50 3.8 NNE 2 9 1 5 1014.7 1015.2 0.0
24/12:30pm 6.9 4.8 -1.0 57 3.2 CALM 0 0 0 0 1016.0 1016.5 0.0
24/12:00pm 6.5 4.4 -0.9 59 3.0 CALM 0 0 0 0 1017.0 1017.5 0.0

Other Formats:

Comma delimited format used in spreadsheet applications
http://www.bom.gov.au/fwo/IDN60801/IDN60801.94588.axf

JavaScript Object Notation format (JSON) in row-major order
http://www.bom.gov.au/fwo/IDN60801/IDN60801.94588.json